sensor_id;sensor_type;location;lat;lon;timestamp;pressure;altitude;pressure_sealevel;temperature;humidity
15444;BME280;7822;48.146;11.576;2023-07-30T00:00:41;94843.66;;;19.29;83.62
15444;BME280;7822;48.146;11.576;2023-07-30T00:03:08;94847.09;;;19.30;83.87
15444;BME280;7822;48.146;11.576;2023-07-30T00:05:36;94848.91;;;19.29;83.83
15444;BME280;7822;48.146;11.576;2023-07-30T00:08:04;94841.00;;;19.29;83.72
15444;BME280;7822;48.146;11.576;2023-07-30T00:10:31;94852.53;;;19.28;83.91
15444;BME280;7822;48.146;11.576;2023-07-30T00:12:59;94845.44;;;19.29;83.73
15444;BME280;7822;48.146;11.576;2023-07-30T00:15:26;94850.72;;;19.29;83.76
15444;BME280;7822;48.146;11.576;2023-07-30T00:17:55;94850.72;;;19.29;83.79
15444;BME280;7822;48.146;11.576;2023-07-30T00:20:23;94858.59;;;19.29;83.89
15444;BME280;7822;48.146;11.576;2023-07-30T00:22:53;94864.06;;;19.27;83.80
15444;BME280;7822;48.146;11.576;2023-07-30T00:25:20;94853.53;;;19.27;83.69
15444;BME280;7822;48.146;11.576;2023-07-30T00:27:48;94862.25;;;19.28;84.04
15444;BME280;7822;48.146;11.576;2023-07-30T00:30:16;94851.72;;;19.28;83.89
15444;BME280;7822;48.146;11.576;2023-07-30T00:32:43;94850.91;;;19.27;84.01
15444;BME280;7822;48.146;11.576;2023-07-30T00:35:13;94861.44;;;19.27;83.57
15444;BME280;7822;48.146;11.576;2023-07-30T00:37:40;94865.66;;;19.28;83.84
15444;BME280;7822;48.146;11.576;2023-07-30T00:40:08;94869.13;;;19.29;83.81
15444;BME280;7822;48.146;11.576;2023-07-30T00:42:35;94870.16;;;19.28;83.71
15444;BME280;7822;48.146;11.576;2023-07-30T00:45:03;94873.56;;;19.28;83.95
15444;BME280;7822;48.146;11.576;2023-07-30T00:47:31;94872.78;;;19.28;83.69
15444;BME280;7822;48.146;11.576;2023-07-30T00:49:59;94865.66;;;19.28;83.85
15444;BME280;7822;48.146;11.576;2023-07-30T00:52:27;94868.31;;;19.28;83.61
15444;BME280;7822;48.146;11.576;2023-07-30T00:54:55;94870.94;;;19.28;83.92
15444;BME280;7822;48.146;11.576;2023-07-30T00:57:24;94868.31;;;19.28;83.68
15444;BME280;7822;48.146;11.576;2023-07-30T00:59:52;94858.59;;;19.29;83.66
15444;BME280;7822;48.146;11.576;2023-07-30T01:02:20;94865.66;;;19.28;83.67
15444;BME280;7822;48.146;11.576;2023-07-30T01:04:48;94857.00;;;19.28;83.74
15444;BME280;7822;48.146;11.576;2023-07-30T01:07:15;94849.09;;;19.28;83.77
15444;BME280;7822;48.146;11.576;2023-07-30T01:09:44;94849.09;;;19.28;83.67
15444;BME280;7822;48.146;11.576;2023-07-30T01:12:12;94846.47;;;19.28;83.71
15444;BME280;7822;48.146;11.576;2023-07-30T01:14:40;94842.00;;;19.28;83.89
15444;BME280;7822;48.146;11.576;2023-07-30T01:17:08;94845.66;;;19.27;84.08
15444;BME280;7822;48.146;11.576;2023-07-30T01:19:37;94849.88;;;19.28;83.90
15444;BME280;7822;48.146;11.576;2023-07-30T01:22:05;94849.88;;;19.28;83.78
15444;BME280;7822;48.146;11.576;2023-07-30T01:24:33;94863.03;;;19.28;83.79
15444;BME280;7822;48.146;11.576;2023-07-30T01:27:01;94859.63;;;19.28;83.81
15444;BME280;7822;48.146;11.576;2023-07-30T01:29:31;94860.41;;;19.28;84.30
15444;BME280;7822;48.146;11.576;2023-07-30T01:32:01;94864.06;;;19.27;83.96
15444;BME280;7822;48.146;11.576;2023-07-30T01:34:33;94854.34;;;19.28;83.93
15444;BME280;7822;48.146;11.576;2023-07-30T01:37:01;94858.78;;;19.27;84.04
15444;BME280;7822;48.146;11.576;2023-07-30T01:39:31;94860.59;;;19.27;84.06
15444;BME280;7822;48.146;11.576;2023-07-30T01:41:59;94854.53;;;19.26;83.86
15444;BME280;7822;48.146;11.576;2023-07-30T01:44:27;94854.53;;;19.26;83.96
15444;BME280;7822;48.146;11.576;2023-07-30T01:46:54;94861.44;;;19.27;83.95
15444;BME280;7822;48.146;11.576;2023-07-30T01:49:22;94858.78;;;19.27;84.07
15444;BME280;7822;48.146;11.576;2023-07-30T01:51:49;94865.88;;;19.27;83.85
15444;BME280;7822;48.146;11.576;2023-07-30T01:54:17;94863.25;;;19.27;84.01
15444;BME280;7822;48.146;11.576;2023-07-30T01:56:46;94859.78;;;19.26;83.97
15444;BME280;7822;48.146;11.576;2023-07-30T01:59:13;94871.13;;;19.27;83.96
15444;BME280;7822;48.146;11.576;2023-07-30T02:01:41;94868.50;;;19.27;83.91
15444;BME280;7822;48.146;11.576;2023-07-30T02:04:08;94861.59;;;19.25;84.15
15444;BME280;7822;48.146;11.576;2023-07-30T02:06:36;94863.44;;;19.25;84.04
15444;BME280;7822;48.146;11.576;2023-07-30T02:09:03;94868.69;;;19.25;83.88
15444;BME280;7822;48.146;11.576;2023-07-30T02:11:31;94864.22;;;19.25;83.57
15444;BME280;7822;48.146;11.576;2023-07-30T02:13:59;94866.84;;;19.25;84.00
15444;BME280;7822;48.146;11.576;2023-07-30T02:16:27;94861.59;;;19.25;83.97
15444;BME280;7822;48.146;11.576;2023-07-30T02:18:55;94858.16;;;19.25;83.70
15444;BME280;7822;48.146;11.576;2023-07-30T02:21:22;94860.59;;;19.27;84.13
15444;BME280;7822;48.146;11.576;2023-07-30T02:23:50;94862.41;;;19.26;83.84
15444;BME280;7822;48.146;11.576;2023-07-30T02:26:17;94867.69;;;19.26;84.02
15444;BME280;7822;48.146;11.576;2023-07-30T02:28:45;94863.25;;;19.27;83.96
15444;BME280;7822;48.146;11.576;2023-07-30T02:31:14;94854.53;;;19.26;83.82
15444;BME280;7822;48.146;11.576;2023-07-30T02:33:41;94848.44;;;19.25;83.86
15444;BME280;7822;48.146;11.576;2023-07-30T02:36:09;94860.59;;;19.27;83.83
15444;BME280;7822;48.146;11.576;2023-07-30T02:38:36;94854.53;;;19.26;83.95
15444;BME280;7822;48.146;11.576;2023-07-30T02:41:04;94853.53;;;19.27;83.85
15444;BME280;7822;48.146;11.576;2023-07-30T02:43:31;94844.00;;;19.26;83.78
15444;BME280;7822;48.146;11.576;2023-07-30T02:45:59;94846.63;;;19.26;84.05
15444;BME280;7822;48.146;11.576;2023-07-30T02:48:28;94844.81;;;19.27;84.07
15444;BME280;7822;48.146;11.576;2023-07-30T02:50:55;94850.91;;;19.27;84.07
15444;BME280;7822;48.146;11.576;2023-07-30T02:53:23;94855.34;;;19.27;84.01
15444;BME280;7822;48.146;11.576;2023-07-30T02:55:50;94866.06;;;19.25;84.14
15444;BME280;7822;48.146;11.576;2023-07-30T02:58:18;94867.69;;;19.26;83.98
15444;BME280;7822;48.146;11.576;2023-07-30T03:00:45;94866.84;;;19.25;84.30
15444;BME280;7822;48.146;11.576;2023-07-30T03:03:13;94864.22;;;19.25;84.12
15444;BME280;7822;48.146;11.576;2023-07-30T03:05:42;94867.88;;;19.24;84.28
15444;BME280;7822;48.146;11.576;2023-07-30T03:08:10;94864.22;;;19.25;84.31
15444;BME280;7822;48.146;11.576;2023-07-30T03:10:37;94867.69;;;19.26;84.12
15444;BME280;7822;48.146;11.576;2023-07-30T03:13:05;94868.69;;;19.25;84.38
15444;BME280;7822;48.146;11.576;2023-07-30T03:15:32;94876.59;;;19.25;84.37
15444;BME280;7822;48.146;11.576;2023-07-30T03:18:00;94879.38;;;19.23;84.12
15444;BME280;7822;48.146;11.576;2023-07-30T03:20:27;94888.09;;;19.24;84.10
15444;BME280;7822;48.146;11.576;2023-07-30T03:22:56;94887.09;;;19.25;84.21
15444;BME280;7822;48.146;11.576;2023-07-30T03:25:24;94889.91;;;19.23;84.28
15444;BME280;7822;48.146;11.576;2023-07-30T03:27:51;94887.25;;;19.23;84.43
15444;BME280;7822;48.146;11.576;2023-07-30T03:30:19;94887.25;;;19.23;84.30
15444;BME280;7822;48.146;11.576;2023-07-30T03:32:47;94890.72;;;19.24;84.35
15444;BME280;7822;48.146;11.576;2023-07-30T03:35:14;94888.91;;;19.24;84.35
15444;BME280;7822;48.146;11.576;2023-07-30T03:37:42;94888.09;;;19.24;84.03
15444;BME280;7822;48.146;11.576;2023-07-30T03:40:11;94887.25;;;19.23;84.31
15444;BME280;7822;48.146;11.576;2023-07-30T03:42:38;94892.53;;;19.23;84.22
15444;BME280;7822;48.146;11.576;2023-07-30T03:45:06;94889.91;;;19.23;84.22
15444;BME280;7822;48.146;11.576;2023-07-30T03:47:34;94892.53;;;19.23;84.13
15444;BME280;7822;48.146;11.576;2023-07-30T03:50:01;94895.16;;;19.23;84.23
15444;BME280;7822;48.146;11.576;2023-07-30T03:52:29;94906.69;;;19.22;84.00
15444;BME280;7822;48.146;11.576;2023-07-30T03:54:56;94899.63;;;19.23;84.34
15444;BME280;7822;48.146;11.576;2023-07-30T03:57:25;94905.69;;;19.23;83.99
15444;BME280;7822;48.146;11.576;2023-07-30T03:59:53;94899.63;;;19.23;83.96
15444;BME280;7822;48.146;11.576;2023-07-30T04:02:20;94903.03;;;19.23;84.06
15444;BME280;7822;48.146;11.576;2023-07-30T04:04:48;94909.13;;;19.24;84.03
15444;BME280;7822;48.146;11.576;2023-07-30T04:07:16;94901.22;;;19.24;84.31
15444;BME280;7822;48.146;11.576;2023-07-30T04:09:43;94898.59;;;19.24;84.20
15444;BME280;7822;48.146;11.576;2023-07-30T04:12:11;94905.50;;;19.25;84.49
15444;BME280;7822;48.146;11.576;2023-07-30T04:14:40;94903.88;;;19.24;84.19
15444;BME280;7822;48.146;11.576;2023-07-30T04:17:07;94904.69;;;19.24;84.27
15444;BME280;7822;48.146;11.576;2023-07-30T04:19:35;94915.00;;;19.26;84.50
15444;BME280;7822;48.146;11.576;2023-07-30T04:22:02;94915.00;;;19.26;84.30
15444;BME280;7822;48.146;11.576;2023-07-30T04:24:30;94910.78;;;19.25;84.50
15444;BME280;7822;48.146;11.576;2023-07-30T04:26:57;94911.56;;;19.25;84.49
15444;BME280;7822;48.146;11.576;2023-07-30T04:29:25;94914.19;;;19.25;84.56
15444;BME280;7822;48.146;11.576;2023-07-30T04:31:54;94919.44;;;19.25;84.42
15444;BME280;7822;48.146;11.576;2023-07-30T04:34:21;94926.56;;;19.25;84.54
15444;BME280;7822;48.146;11.576;2023-07-30T04:36:49;94929.19;;;19.25;84.64
15444;BME280;7822;48.146;11.576;2023-07-30T04:39:16;94924.91;;;19.24;84.46
15444;BME280;7822;48.146;11.576;2023-07-30T04:41:44;94927.34;;;19.25;84.61
15444;BME280;7822;48.146;11.576;2023-07-30T04:44:11;94926.56;;;19.25;84.65
15444;BME280;7822;48.146;11.576;2023-07-30T04:46:39;94933.44;;;19.26;84.60
15444;BME280;7822;48.146;11.576;2023-07-30T04:49:08;94927.34;;;19.25;84.88
15444;BME280;7822;48.146;11.576;2023-07-30T04:51:35;94932.81;;;19.24;84.69
15444;BME280;7822;48.146;11.576;2023-07-30T04:54:05;94939.72;;;19.25;84.49
15444;BME280;7822;48.146;11.576;2023-07-30T04:56:32;94936.25;;;19.24;84.57
15444;BME280;7822;48.146;11.576;2023-07-30T04:59:00;94938.88;;;19.24;84.68
15444;BME280;7822;48.146;11.576;2023-07-30T05:01:27;94947.75;;;19.23;84.66
15444;BME280;7822;48.146;11.576;2023-07-30T05:03:55;94943.31;;;19.24;84.54
15444;BME280;7822;48.146;11.576;2023-07-30T05:06:24;94946.97;;;19.23;84.65
15444;BME280;7822;48.146;11.576;2023-07-30T05:08:51;94945.94;;;19.24;84.51
15444;BME280;7822;48.146;11.576;2023-07-30T05:11:19;94946.97;;;19.23;84.59
15444;BME280;7822;48.146;11.576;2023-07-30T05:13:46;94954.66;;;19.24;85.01
15444;BME280;7822;48.146;11.576;2023-07-30T05:16:14;94947.75;;;19.23;84.90
15444;BME280;7822;48.146;11.576;2023-07-30T05:18:41;94957.28;;;19.24;84.96
15444;BME280;7822;48.146;11.576;2023-07-30T05:21:11;94945.13;;;19.23;84.61
15444;BME280;7822;48.146;11.576;2023-07-30T05:23:40;94946.97;;;19.23;84.69
15444;BME280;7822;48.146;11.576;2023-07-30T05:26:07;94945.94;;;19.24;84.62
15444;BME280;7822;48.146;11.576;2023-07-30T05:28:35;94956.47;;;19.24;84.50
15444;BME280;7822;48.146;11.576;2023-07-30T05:31:02;94954.84;;;19.23;84.52
15444;BME280;7822;48.146;11.576;2023-07-30T05:33:30;94960.13;;;19.23;84.57
15444;BME280;7822;48.146;11.576;2023-07-30T05:35:57;94967.81;;;19.24;84.77
15444;BME280;7822;48.146;11.576;2023-07-30T05:38:25;94972.25;;;19.24;84.57
15444;BME280;7822;48.146;11.576;2023-07-30T05:40:54;94967.00;;;19.24;84.42
15444;BME280;7822;48.146;11.576;2023-07-30T05:43:21;94964.34;;;19.24;84.41
15444;BME280;7822;48.146;11.576;2023-07-30T05:45:49;94968.78;;;19.23;84.47
15444;BME280;7822;48.146;11.576;2023-07-30T05:48:16;94968.63;;;19.25;84.67
15444;BME280;7822;48.146;11.576;2023-07-30T05:50:44;94959.09;;;19.24;84.64
15444;BME280;7822;48.146;11.576;2023-07-30T05:53:11;94966.00;;;19.25;84.47
15444;BME280;7822;48.146;11.576;2023-07-30T05:55:39;94963.38;;;19.25;84.52
15444;BME280;7822;48.146;11.576;2023-07-30T05:58:08;94963.38;;;19.25;84.61
15444;BME280;7822;48.146;11.576;2023-07-30T06:00:35;94963.38;;;19.25;84.83
15444;BME280;7822;48.146;11.576;2023-07-30T06:03:03;94965.19;;;19.24;84.67
15444;BME280;7822;48.146;11.576;2023-07-30T06:05:32;94964.34;;;19.24;84.77
15444;BME280;7822;48.146;11.576;2023-07-30T06:08:00;94961.72;;;19.24;84.64
15444;BME280;7822;48.146;11.576;2023-07-30T06:10:33;94960.75;;;19.25;84.66
15444;BME280;7822;48.146;11.576;2023-07-30T06:13:01;94963.53;;;19.23;84.69
15444;BME280;7822;48.146;11.576;2023-07-30T06:15:29;94962.56;;;19.24;84.75
15444;BME280;7822;48.146;11.576;2023-07-30T06:17:57;94958.28;;;19.23;84.86
15444;BME280;7822;48.146;11.576;2023-07-30T06:20:25;94961.91;;;19.22;84.80
15444;BME280;7822;48.146;11.576;2023-07-30T06:22:52;94962.75;;;19.23;85.08
15444;BME280;7822;48.146;11.576;2023-07-30T06:25:20;94964.56;;;19.22;84.73
15444;BME280;7822;48.146;11.576;2023-07-30T06:27:47;94965.38;;;19.23;84.90
15444;BME280;7822;48.146;11.576;2023-07-30T06:30:15;94975.91;;;19.23;84.80
15444;BME280;7822;48.146;11.576;2023-07-30T06:32:44;94976.69;;;19.23;84.89
15444;BME280;7822;48.146;11.576;2023-07-30T06:35:11;94975.06;;;19.22;85.00
15444;BME280;7822;48.146;11.576;2023-07-30T06:37:39;94967.19;;;19.22;84.69
15444;BME280;7822;48.146;11.576;2023-07-30T06:40:07;94974.25;;;19.22;84.45
15444;BME280;7822;48.146;11.576;2023-07-30T06:42:34;94973.41;;;19.21;84.44
15444;BME280;7822;48.146;11.576;2023-07-30T06:45:02;94976.69;;;19.23;84.41
15444;BME280;7822;48.146;11.576;2023-07-30T06:47:30;94981.16;;;19.23;84.16
15444;BME280;7822;48.146;11.576;2023-07-30T06:50:02;94978.34;;;19.24;84.15
15444;BME280;7822;48.146;11.576;2023-07-30T06:52:30;94971.25;;;19.25;84.34
15444;BME280;7822;48.146;11.576;2023-07-30T06:54:57;94969.28;;;19.27;84.16
15444;BME280;7822;48.146;11.576;2023-07-30T06:57:25;94971.91;;;19.27;84.36
15444;BME280;7822;48.146;11.576;2023-07-30T06:59:52;94971.91;;;19.27;84.35
15444;BME280;7822;48.146;11.576;2023-07-30T07:02:20;94972.72;;;19.28;84.07
15444;BME280;7822;48.146;11.576;2023-07-30T07:04:47;94978.78;;;19.28;84.08
15444;BME280;7822;48.146;11.576;2023-07-30T07:07:16;94984.03;;;19.28;84.25
15444;BME280;7822;48.146;11.576;2023-07-30T07:09:44;94979.41;;;19.30;84.26
15444;BME280;7822;48.146;11.576;2023-07-30T07:12:12;94983.88;;;19.30;84.12
15444;BME280;7822;48.146;11.576;2023-07-30T07:14:39;94979.25;;;19.32;84.15
15444;BME280;7822;48.146;11.576;2023-07-30T07:17:08;94983.69;;;19.31;84.19
15444;BME280;7822;48.146;11.576;2023-07-30T07:19:36;94975.78;;;19.31;84.32
15444;BME280;7822;48.146;11.576;2023-07-30T07:22:04;94987.13;;;19.32;84.05
15444;BME280;7822;48.146;11.576;2023-07-30T07:24:33;94982.88;;;19.31;84.03
15444;BME280;7822;48.146;11.576;2023-07-30T07:27:00;94987.13;;;19.32;84.23
15444;BME280;7822;48.146;11.576;2023-07-30T07:29:28;94984.50;;;19.32;84.04
15444;BME280;7822;48.146;11.576;2023-07-30T07:31:55;94986.31;;;19.31;84.09
15444;BME280;7822;48.146;11.576;2023-07-30T07:34:23;94989.78;;;19.32;84.14
15444;BME280;7822;48.146;11.576;2023-07-30T07:36:50;94987.94;;;19.32;84.25
15444;BME280;7822;48.146;11.576;2023-07-30T07:39:18;94987.13;;;19.32;84.30
15444;BME280;7822;48.146;11.576;2023-07-30T07:41:47;94983.50;;;19.33;84.02
15444;BME280;7822;48.146;11.576;2023-07-30T07:44:15;94987.13;;;19.32;83.91
15444;BME280;7822;48.146;11.576;2023-07-30T07:46:42;94995.81;;;19.32;84.17
15444;BME280;7822;48.146;11.576;2023-07-30T07:49:10;94995.81;;;19.32;84.19
15444;BME280;7822;48.146;11.576;2023-07-30T07:51:37;94999.28;;;19.33;84.21
15444;BME280;7822;48.146;11.576;2023-07-30T07:54:05;94995.81;;;19.32;84.10
15444;BME280;7822;48.146;11.576;2023-07-30T07:56:33;94991.38;;;19.33;83.96
15444;BME280;7822;48.146;11.576;2023-07-30T07:59:02;94997.47;;;19.33;83.92
15444;BME280;7822;48.146;11.576;2023-07-30T08:01:29;94998.44;;;19.32;84.11
15444;BME280;7822;48.146;11.576;2023-07-30T08:03:57;94994.00;;;19.33;84.01
15444;BME280;7822;48.146;11.576;2023-07-30T08:06:24;94995.03;;;19.32;84.28
15444;BME280;7822;48.146;11.576;2023-07-30T08:08:52;94992.41;;;19.32;84.10
15444;BME280;7822;48.146;11.576;2023-07-30T08:11:19;94995.81;;;19.32;84.17
15444;BME280;7822;48.146;11.576;2023-07-30T08:13:47;95000.28;;;19.32;83.95
15444;BME280;7822;48.146;11.576;2023-07-30T08:16:16;94997.66;;;19.32;84.21
15444;BME280;7822;48.146;11.576;2023-07-30T08:18:43;94997.66;;;19.32;84.49
15444;BME280;7822;48.146;11.576;2023-07-30T08:21:11;95000.28;;;19.32;84.30
15444;BME280;7822;48.146;11.576;2023-07-30T08:23:38;95007.34;;;19.31;84.48
15444;BME280;7822;48.146;11.576;2023-07-30T08:26:06;94998.44;;;19.32;84.28
15444;BME280;7822;48.146;11.576;2023-07-30T08:28:33;94998.44;;;19.32;84.30
15444;BME280;7822;48.146;11.576;2023-07-30T08:31:01;94998.44;;;19.32;83.99
15444;BME280;7822;48.146;11.576;2023-07-30T08:33:30;94996.66;;;19.33;84.16
15444;BME280;7822;48.146;11.576;2023-07-30T08:35:58;94987.94;;;19.32;83.95
15444;BME280;7822;48.146;11.576;2023-07-30T08:38:26;94993.19;;;19.32;83.96
15444;BME280;7822;48.146;11.576;2023-07-30T08:40:53;94998.44;;;19.32;84.03
15444;BME280;7822;48.146;11.576;2023-07-30T08:43:21;95000.09;;;19.33;83.92
15444;BME280;7822;48.146;11.576;2023-07-30T08:45:48;94992.22;;;19.33;84.01
15444;BME280;7822;48.146;11.576;2023-07-30T08:48:16;95008.00;;;19.33;83.87
15444;BME280;7822;48.146;11.576;2023-07-30T08:50:45;95003.56;;;19.34;83.89
15444;BME280;7822;48.146;11.576;2023-07-30T08:53:13;94987.78;;;19.34;83.86
15444;BME280;7822;48.146;11.576;2023-07-30T08:55:41;94993.03;;;19.34;84.02
15444;BME280;7822;48.146;11.576;2023-07-30T08:58:08;94989.41;;;19.35;83.65
15444;BME280;7822;48.146;11.576;2023-07-30T09:00:37;94984.16;;;19.35;83.43
15444;BME280;7822;48.146;11.576;2023-07-30T09:03:05;94986.44;;;19.38;83.25
15444;BME280;7822;48.146;11.576;2023-07-30T09:05:34;94965.59;;;19.36;83.51
15444;BME280;7822;48.146;11.576;2023-07-30T09:08:03;94970.03;;;19.36;83.44
15444;BME280;7822;48.146;11.576;2023-07-30T09:10:31;94965.59;;;19.36;83.55
15444;BME280;7822;48.146;11.576;2023-07-30T09:12:58;94970.84;;;19.36;84.33
15444;BME280;7822;48.146;11.576;2023-07-30T09:15:29;94962.28;;;19.34;84.25
15444;BME280;7822;48.146;11.576;2023-07-30T09:17:57;94959.66;;;19.34;84.25
15444;BME280;7822;48.146;11.576;2023-07-30T09:20:25;94953.56;;;19.34;84.36
15444;BME280;7822;48.146;11.576;2023-07-30T09:22:55;94946.66;;;19.33;84.40
15444;BME280;7822;48.146;11.576;2023-07-30T09:25:24;94959.00;;;19.32;84.64
15444;BME280;7822;48.146;11.576;2023-07-30T09:27:52;94953.72;;;19.32;84.52
15444;BME280;7822;48.146;11.576;2023-07-30T09:30:23;94953.72;;;19.32;84.30
15444;BME280;7822;48.146;11.576;2023-07-30T09:32:53;94946.84;;;19.31;84.47
15444;BME280;7822;48.146;11.576;2023-07-30T09:35:21;94952.13;;;19.31;84.57
15444;BME280;7822;48.146;11.576;2023-07-30T09:37:51;94948.66;;;19.31;84.45
15444;BME280;7822;48.146;11.576;2023-07-30T09:40:31;94945.22;;;19.30;84.34
15444;BME280;7822;48.146;11.576;2023-07-30T09:42:59;94958.38;;;19.30;84.70
15444;BME280;7822;48.146;11.576;2023-07-30T09:45:27;94952.31;;;19.30;84.83
15444;BME280;7822;48.146;11.576;2023-07-30T09:47:55;94953.94;;;19.31;84.52
15444;BME280;7822;48.146;11.576;2023-07-30T09:50:23;94948.84;;;19.29;84.36
15444;BME280;7822;48.146;11.576;2023-07-30T09:52:51;94950.47;;;19.30;84.26
15444;BME280;7822;48.146;11.576;2023-07-30T09:55:19;94951.28;;;19.31;84.45
15444;BME280;7822;48.146;11.576;2023-07-30T09:57:48;94956.56;;;19.31;84.43
15444;BME280;7822;48.146;11.576;2023-07-30T10:00:16;94948.66;;;19.31;84.68
15444;BME280;7822;48.146;11.576;2023-07-30T10:02:45;94951.28;;;19.31;84.45
15444;BME280;7822;48.146;11.576;2023-07-30T10:05:14;94955.72;;;19.30;84.56
15444;BME280;7822;48.146;11.576;2023-07-30T10:07:42;94961.81;;;19.31;84.75
15444;BME280;7822;48.146;11.576;2023-07-30T10:10:11;94970.72;;;19.30;84.41
15444;BME280;7822;48.146;11.576;2023-07-30T10:12:39;94986.50;;;19.30;84.64
15444;BME280;7822;48.146;11.576;2023-07-30T10:15:10;95000.63;;;19.29;84.73
15444;BME280;7822;48.146;11.576;2023-07-30T10:17:37;94992.75;;;19.29;84.56
15444;BME280;7822;48.146;11.576;2023-07-30T10:20:17;94991.94;;;19.28;84.37
15444;BME280;7822;48.146;11.576;2023-07-30T10:22:46;94984.84;;;19.29;84.15
15444;BME280;7822;48.146;11.576;2023-07-30T10:25:14;94990.13;;;19.29;84.41
15444;BME280;7822;48.146;11.576;2023-07-30T10:27:41;94986.66;;;19.28;84.42
15444;BME280;7822;48.146;11.576;2023-07-30T10:30:14;94984.84;;;19.29;84.41
15444;BME280;7822;48.146;11.576;2023-07-30T10:32:42;94982.22;;;19.29;84.40
15444;BME280;7822;48.146;11.576;2023-07-30T10:35:34;94988.31;;;19.29;84.53
15444;BME280;7822;48.146;11.576;2023-07-30T10:38:11;94981.41;;;19.28;84.48
15444;BME280;7822;48.146;11.576;2023-07-30T10:40:39;94983.88;;;19.30;84.51
15444;BME280;7822;48.146;11.576;2023-07-30T10:43:13;94978.63;;;19.30;84.40
15444;BME280;7822;48.146;11.576;2023-07-30T10:45:49;94978.78;;;19.28;84.41
15444;BME280;7822;48.146;11.576;2023-07-30T10:48:17;94976.97;;;19.29;84.67
15444;BME280;7822;48.146;11.576;2023-07-30T10:50:44;94967.28;;;19.29;84.47
15444;BME280;7822;48.146;11.576;2023-07-30T10:53:15;94966.44;;;19.29;84.48
15444;BME280;7822;48.146;11.576;2023-07-30T10:55:44;94969.06;;;19.29;84.77
15444;BME280;7822;48.146;11.576;2023-07-30T10:58:12;94959.56;;;19.28;84.65
15444;BME280;7822;48.146;11.576;2023-07-30T11:00:40;94955.09;;;19.28;84.53
15444;BME280;7822;48.146;11.576;2023-07-30T11:03:09;94954.13;;;19.29;84.67
15444;BME280;7822;48.146;11.576;2023-07-30T11:05:37;94953.28;;;19.29;84.46
15444;BME280;7822;48.146;11.576;2023-07-30T11:08:05;94948.84;;;19.29;84.41
15444;BME280;7822;48.146;11.576;2023-07-30T11:10:40;94960.19;;;19.30;84.43
15444;BME280;7822;48.146;11.576;2023-07-30T11:13:08;94951.50;;;19.29;84.23
15444;BME280;7822;48.146;11.576;2023-07-30T11:15:40;94955.72;;;19.30;84.70
15444;BME280;7822;48.146;11.576;2023-07-30T11:18:07;94940.78;;;19.31;84.50
15444;BME280;7822;48.146;11.576;2023-07-30T11:20:36;94946.03;;;19.31;84.50
15444;BME280;7822;48.146;11.576;2023-07-30T11:23:16;94950.47;;;19.30;84.58
15444;BME280;7822;48.146;11.576;2023-07-30T11:25:47;94959.38;;;19.29;84.50
15444;BME280;7822;48.146;11.576;2023-07-30T11:28:26;94947.06;;;19.30;84.29
15444;BME280;7822;48.146;11.576;2023-07-30T11:30:55;94971.34;;;19.32;84.59
15444;BME280;7822;48.146;11.576;2023-07-30T11:33:22;94959.19;;;19.31;84.59
15444;BME280;7822;48.146;11.576;2023-07-30T11:35:51;94962.84;;;19.30;84.72
15444;BME280;7822;48.146;11.576;2023-07-30T11:38:19;94965.28;;;19.31;84.72
15444;BME280;7822;48.146;11.576;2023-07-30T11:40:46;94962.63;;;19.31;84.58
15444;BME280;7822;48.146;11.576;2023-07-30T11:43:14;94957.56;;;19.30;84.55
15444;BME280;7822;48.146;11.576;2023-07-30T11:45:42;94969.72;;;19.31;84.45
15444;BME280;7822;48.146;11.576;2023-07-30T11:48:10;94966.25;;;19.30;84.51
15444;BME280;7822;48.146;11.576;2023-07-30T11:50:47;94974.97;;;19.31;84.39
15444;BME280;7822;48.146;11.576;2023-07-30T11:53:17;94973.34;;;19.30;84.38
15444;BME280;7822;48.146;11.576;2023-07-30T11:55:45;94977.59;;;19.31;84.55
15444;BME280;7822;48.146;11.576;2023-07-30T11:58:12;94981.06;;;19.31;84.36
15444;BME280;7822;48.146;11.576;2023-07-30T12:00:40;94983.69;;;19.31;84.17
15444;BME280;7822;48.146;11.576;2023-07-30T12:03:09;94980.22;;;19.31;84.33
15444;BME280;7822;48.146;11.576;2023-07-30T12:05:38;94974.97;;;19.31;84.33
15444;BME280;7822;48.146;11.576;2023-07-30T12:08:06;94976.63;;;19.32;84.46
15444;BME280;7822;48.146;11.576;2023-07-30T12:10:45;94961.00;;;19.30;84.32
15444;BME280;7822;48.146;11.576;2023-07-30T12:13:13;94967.06;;;19.31;84.31
15444;BME280;7822;48.146;11.576;2023-07-30T12:15:42;94965.47;;;19.30;84.55
15444;BME280;7822;48.146;11.576;2023-07-30T12:18:10;94966.25;;;19.30;84.41
15444;BME280;7822;48.146;11.576;2023-07-30T12:20:38;94977.59;;;19.31;84.34
15444;BME280;7822;48.146;11.576;2023-07-30T12:23:06;94974.97;;;19.31;84.29
15444;BME280;7822;48.146;11.576;2023-07-30T12:25:33;94982.03;;;19.30;84.41
15444;BME280;7822;48.146;11.576;2023-07-30T12:28:03;94989.94;;;19.30;84.27
15444;BME280;7822;48.146;11.576;2023-07-30T12:30:30;94996.19;;;19.29;84.51
15444;BME280;7822;48.146;11.576;2023-07-30T12:32:58;94994.41;;;19.30;84.61
15444;BME280;7822;48.146;11.576;2023-07-30T12:35:25;94993.56;;;19.29;84.80
15444;BME280;7822;48.146;11.576;2023-07-30T12:37:53;94995.19;;;19.30;84.43
15444;BME280;7822;48.146;11.576;2023-07-30T12:40:20;94999.66;;;19.30;84.72
15444;BME280;7822;48.146;11.576;2023-07-30T12:42:48;94988.50;;;19.28;84.57
15444;BME280;7822;48.146;11.576;2023-07-30T12:45:17;94997.03;;;19.30;84.95
15444;BME280;7822;48.146;11.576;2023-07-30T12:47:44;94994.56;;;19.28;85.00
15444;BME280;7822;48.146;11.576;2023-07-30T12:50:12;94988.31;;;19.29;84.81
15444;BME280;7822;48.146;11.576;2023-07-30T12:52:39;94998.00;;;19.29;84.65
15444;BME280;7822;48.146;11.576;2023-07-30T12:55:07;94999.03;;;19.28;85.01
15444;BME280;7822;48.146;11.576;2023-07-30T12:57:34;95002.44;;;19.28;84.63
15444;BME280;7822;48.146;11.576;2023-07-30T13:00:02;94996.41;;;19.28;85.03
15444;BME280;7822;48.146;11.576;2023-07-30T13:02:32;94991.94;;;19.28;84.76
15444;BME280;7822;48.146;11.576;2023-07-30T13:05:01;94986.66;;;19.28;84.65